Time;durP1;ratioP1;P1;durP2;ratioP2;P2;SDS_P1;SDS_P2;PMS_P1;PMS_P2;Temp;Humidity;BMP_temperature;BMP_pressure;BME280_temperature;BME280_humidity;BME280_pressure;Samples;Min_cycle;Max_cycle;Signal;HPM_P1;HPM_P2
2023/07/02 00:01:48;;;;;;;4.13;2.00;;;15.00;99.90;;;;;;5045388;28;20052;-73
2023/07/02 00:04:16;;;;;;;0.82;0.63;;;15.00;92.30;;;;;;5045563;28;20384;-73
2023/07/02 00:06:48;;;;;;;1.85;0.35;;;15.00;60.00;;;;;;5045880;28;20056;-73
2023/07/02 00:09:15;;;;;;;0.65;0.30;;;15.00;64.00;;;;;;5045606;28;20603;-73
2023/07/02 00:11:43;;;;;;;1.67;0.75;;;15.00;37.90;;;;;;5044575;28;20049;-73
2023/07/02 00:14:10;;;;;;;0.40;0.32;;;15.00;1.00;;;;;;5045724;28;20056;-73
2023/07/02 00:16:38;;;;;;;0.85;0.73;;;15.10;1.00;;;;;;5045565;28;20514;-73
2023/07/02 00:19:04;;;;;;;0.22;0.22;;;15.10;1.00;;;;;;5045475;28;20037;-73
2023/07/02 00:21:32;;;;;;;1.48;1.30;;;15.00;1.00;;;;;;5045644;28;20049;-74
2023/07/02 00:23:58;;;;;;;4.85;2.50;;;14.90;1.00;;;;;;5045738;28;20084;-73
2023/07/02 00:26:25;;;;;;;1.17;0.95;;;14.90;1.00;;;;;;5045795;28;20041;-73
2023/07/02 00:28:51;;;;;;;3.22;1.27;;;14.80;1.00;;;;;;5045380;28;20048;-73
2023/07/02 00:31:17;;;;;;;1.05;0.95;;;14.80;1.00;;;;;;5045450;28;20488;-73
2023/07/02 00:33:43;;;;;;;3.17;1.23;;;14.70;40.20;;;;;;5045247;28;20041;-73
2023/07/02 00:36:13;;;;;;;0.20;0.20;;;14.50;99.90;;;;;;5045594;28;20094;-73
2023/07/02 00:38:41;;;;;;;1.08;0.65;;;14.40;99.90;;;;;;5045402;28;20555;-73
2023/07/02 00:41:06;;;;;;;0.82;0.70;;;14.30;99.90;;;;;;5045314;28;20052;-73
2023/07/02 00:43:32;;;;;;;0.65;0.38;;;14.30;1.00;;;;;;5045224;28;20037;-73
2023/07/02 00:45:58;;;;;;;0.38;0.38;;;14.30;1.00;;;;;;5045758;28;20044;-73
2023/07/02 00:48:23;;;;;;;2.03;1.50;;;14.30;1.00;;;;;;5045258;28;20048;-73
2023/07/02 00:50:49;;;;;;;0.40;0.40;;;14.30;1.00;;;;;;5045286;28;20040;-73
2023/07/02 00:53:15;;;;;;;0.45;0.38;;;14.10;11.40;;;;;;5045819;28;20075;-73
2023/07/02 00:55:41;;;;;;;0.40;0.40;;;14.10;82.20;;;;;;5045855;28;20045;-73
2023/07/02 00:58:08;;;;;;;2.63;0.45;;;14.10;91.90;;;;;;5045892;28;20511;-73
2023/07/02 01:00:33;;;;;;;0.30;0.25;;;14.00;99.90;;;;;;5045750;28;20052;-73
2023/07/02 01:02:59;;;;;;;0.20;0.20;;;14.00;99.90;;;;;;5045231;28;20056;-73
2023/07/02 01:05:35;;;;;;;12.10;1.30;;;13.90;99.90;;;;;;5045914;28;20037;-72
2023/07/02 01:08:05;;;;;;;1.02;0.93;;;13.80;99.90;;;;;;5045624;28;20306;-73
2023/07/02 01:10:32;;;;;;;5.68;2.38;;;13.70;99.90;;;;;;5045208;28;20045;-73
2023/07/02 01:13:03;;;;;;;1.65;1.17;;;13.70;1.00;;;;;;5045529;28;20057;-73
2023/07/02 01:15:29;;;;;;;2.30;1.40;;;13.60;1.00;;;;;;5046021;28;20134;-73
2023/07/02 01:17:56;;;;;;;1.73;0.88;;;13.50;99.90;;;;;;5045849;28;20071;-74
2023/07/02 01:20:21;;;;;;;0.47;0.47;;;13.40;99.90;;;;;;5045683;28;20128;-73
2023/07/02 01:22:51;;;;;;;3.13;0.57;;;13.40;1.00;;;;;;5045554;28;20151;-72
2023/07/02 01:25:17;;;;;;;1.17;1.02;;;13.40;1.00;;;;;;5045625;28;20147;-73
2023/07/02 01:27:43;;;;;;;7.45;1.13;;;13.30;1.00;;;;;;5045050;28;20047;-73
2023/07/02 01:30:10;;;;;;;3.45;1.55;;;13.20;99.90;;;;;;5045268;28;20045;-73
2023/07/02 01:32:35;;;;;;;12.20;0.65;;;13.10;99.90;;;;;;5045112;28;20105;-73
2023/07/02 01:35:01;;;;;;;0.55;0.40;;;13.10;1.00;;;;;;5044900;28;20096;-72
2023/07/02 01:37:27;;;;;;;1.45;0.57;;;13.00;75.20;;;;;;5044616;28;20097;-73
2023/07/02 01:39:52;;;;;;;6.05;0.95;;;13.00;99.90;;;;;;5045066;28;20037;-73
2023/07/02 01:42:19;;;;;;;2.35;1.25;;;12.90;99.90;;;;;;5044884;28;20072;-72
2023/07/02 01:44:47;;;;;;;0.77;0.52;;;12.80;99.90;;;;;;5044872;28;20036;-73
2023/07/02 01:47:13;;;;;;;2.92;1.77;;;12.70;99.90;;;;;;5043584;28;20045;-73
2023/07/02 01:49:39;;;;;;;6.45;1.42;;;12.70;1.00;;;;;;5044672;28;20048;-74
2023/07/02 01:52:05;;;;;;;9.80;1.13;;;12.70;99.90;;;;;;5044697;28;20423;-73
2023/07/02 01:54:35;;;;;;;0.68;0.68;;;12.60;99.90;;;;;;5044558;28;20041;-73
2023/07/02 01:57:01;;;;;;;1.70;0.98;;;12.60;99.90;;;;;;5044267;28;20045;-73
2023/07/02 01:59:26;;;;;;;0.38;0.38;;;12.50;99.90;;;;;;5044597;28;20048;-73
2023/07/02 02:01:52;;;;;;;1.33;0.88;;;12.40;99.90;;;;;;5044319;28;20099;-73
2023/07/02 02:04:19;;;;;;;2.85;1.45;;;12.40;1.00;;;;;;5044526;28;20045;-73
2023/07/02 02:06:44;;;;;;;4.47;0.80;;;12.30;96.60;;;;;;5044941;28;20040;-73
2023/07/02 02:09:10;;;;;;;0.98;0.63;;;12.30;99.90;;;;;;5044456;28;20237;-73
2023/07/02 02:11:39;;;;;;;0.38;0.38;;;12.20;99.90;;;;;;5044068;28;20124;-73
2023/07/02 02:14:05;;;;;;;0.68;0.52;;;12.10;99.90;;;;;;5044188;28;20132;-73
2023/07/02 02:16:30;;;;;;;1.15;1.05;;;12.10;99.90;;;;;;5043673;28;20182;-73
2023/07/02 02:18:56;;;;;;;2.50;1.08;;;12.10;1.00;;;;;;5044377;28;20066;-73
2023/07/02 02:21:22;;;;;;;0.15;0.10;;;12.10;99.90;;;;;;5044178;28;20154;-73
2023/07/02 02:23:48;;;;;;;1.08;0.98;;;12.00;1.00;;;;;;5044209;28;20076;-73
2023/07/02 02:26:14;;;;;;;1.17;1.08;;;12.00;1.00;;;;;;5044714;28;20049;-73
2023/07/02 02:28:41;;;;;;;1.92;1.13;;;12.00;1.00;;;;;;5043572;28;20064;-73
2023/07/02 02:31:06;;;;;;;0.20;0.20;;;12.10;1.00;;;;;;5044201;28;20045;-73
2023/07/02 02:33:33;;;;;;;2.45;1.40;;;11.90;1.00;;;;;;5044044;28;20051;-73
2023/07/02 02:35:59;;;;;;;1.85;0.57;;;11.80;1.00;;;;;;5043950;28;20497;-73
2023/07/02 02:38:24;;;;;;;6.30;1.45;;;11.80;1.00;;;;;;5043820;28;20048;-73
2023/07/02 02:40:50;;;;;;;1.70;1.42;;;11.70;33.80;;;;;;5044252;28;20051;-75
2023/07/02 02:43:18;;;;;;;2.50;1.65;;;11.60;99.90;;;;;;5044000;28;20037;-73
2023/07/02 02:45:44;;;;;;;10.05;3.28;;;11.60;99.90;;;;;;5044011;28;20396;-76
2023/07/02 02:48:10;;;;;;;3.92;0.60;;;11.50;99.90;;;;;;5043857;28;20036;-73
2023/07/02 02:50:38;;;;;;;5.95;1.23;;;11.50;99.90;;;;;;5044217;28;20049;-71
2023/07/02 02:53:04;;;;;;;0.55;0.55;;;11.50;99.90;;;;;;5042597;28;20128;-73
2023/07/02 02:55:29;;;;;;;2.67;1.23;;;11.40;99.90;;;;;;5044247;28;20129;-73
2023/07/02 02:57:55;;;;;;;0.88;0.55;;;11.40;99.90;;;;;;5043391;28;20124;-73
2023/07/02 03:00:20;;;;;;;2.90;2.13;;;11.40;1.00;;;;;;5044099;28;20101;-73
2023/07/02 03:02:46;;;;;;;5.10;3.17;;;11.40;1.00;;;;;;5043293;28;20053;-73
2023/07/02 03:05:12;;;;;;;0.73;0.73;;;11.40;1.00;;;;;;5043740;28;20067;-74
2023/07/02 03:07:38;;;;;;;10.45;0.82;;;11.30;1.00;;;;;;5043562;28;20071;-73
2023/07/02 03:10:05;;;;;;;1.20;1.02;;;11.40;1.00;;;;;;5044079;28;20049;-73
2023/07/02 03:12:30;;;;;;;2.65;1.33;;;11.30;1.00;;;;;;5043770;28;20049;-73
2023/07/02 03:14:56;;;;;;;1.75;1.63;;;11.40;1.00;;;;;;5043779;28;20045;-73
2023/07/02 03:17:22;;;;;;;2.33;2.08;;;11.30;1.00;;;;;;5043514;28;20480;-73
2023/07/02 03:19:47;;;;;;;2.80;1.25;;;11.30;31.90;;;;;;5043138;28;20099;-73
2023/07/02 03:22:13;;;;;;;4.25;2.20;;;11.30;32.40;;;;;;5043642;28;20605;-73
2023/07/02 03:24:39;;;;;;;2.00;1.27;;;11.30;50.30;;;;;;5044438;28;20040;-73
2023/07/02 03:27:05;;;;;;;1.98;1.45;;;11.30;38.20;;;;;;5043489;28;20079;-73
2023/07/02 03:29:32;;;;;;;0.15;0.15;;;11.20;40.40;;;;;;5043138;28;20075;-73
2023/07/02 03:31:58;;;;;;;1.02;0.52;;;11.20;63.60;;;;;;5043087;28;20091;-73
2023/07/02 03:34:23;;;;;;;0.75;0.52;;;11.20;94.20;;;;;;5043169;28;20434;-73
2023/07/02 03:36:49;;;;;;;2.20;1.45;;;11.20;92.70;;;;;;5043613;28;20128;-73
2023/07/02 03:39:16;;;;;;;2.95;1.70;;;11.30;99.90;;;;;;5043535;28;20045;-73
2023/07/02 03:41:41;;;;;;;0.00;0.00;;;11.30;99.90;;;;;;5043411;28;20585;-73
2023/07/02 03:44:07;;;;;;;8.25;1.33;;;11.30;99.90;;;;;;5041689;28;20045;-73
2023/07/02 03:46:33;;;;;;;1.17;1.08;;;12.30;99.90;;;;;;5043015;28;20043;-72
2023/07/02 03:48:58;;;;;;;3.17;0.63;;;11.30;99.90;;;;;;5042922;28;20045;-73
2023/07/02 03:51:24;;;;;;;0.60;0.60;;;11.40;99.90;;;;;;5042849;28;20511;-73
2023/07/02 03:53:49;;;;;;;1.25;1.13;;;11.50;99.90;;;;;;5043110;28;20499;-73
2023/07/02 03:56:15;;;;;;;2.47;1.05;;;11.70;99.90;;;;;;5043108;28;20041;-73
2023/07/02 03:58:41;;;;;;;2.22;1.30;;;11.90;99.90;;;;;;5043449;28;20055;-73
2023/07/02 04:01:07;;;;;;;1.65;0.65;;;12.20;94.40;;;;;;5042880;28;20041;-73
2023/07/02 04:03:32;;;;;;;0.65;0.35;;;12.20;73.90;;;;;;5041711;28;20098;-73
2023/07/02 04:05:58;;;;;;;0.43;0.35;;;12.30;34.80;;;;;;5043341;28;20083;-73
2023/07/02 04:08:28;;;;;;;5.30;1.60;;;12.40;8.10;;;;;;5043109;28;20052;-73
2023/07/02 04:10:54;;;;;;;1.45;1.25;;;12.40;1.00;;;;;;5045704;28;20119;-73
2023/07/02 04:13:20;;;;;;;1.48;1.25;;;12.50;1.00;;;;;;5046317;28;20057;-72
2023/07/02 04:15:45;;;;;;;1.85;1.13;;;12.50;1.00;;;;;;5046565;28;20060;-73
2023/07/02 04:18:11;;;;;;;4.63;1.92;;;12.60;1.00;;;;;;5046699;28;20403;-73
2023/07/02 04:20:38;;;;;;;3.53;1.70;;;12.60;1.00;;;;;;5046444;28;20045;-73
2023/07/02 04:23:05;;;;;;;0.45;0.45;;;12.70;1.00;;;;;;5046633;28;20060;-72
2023/07/02 04:25:31;;;;;;;0.70;0.70;;;12.70;1.00;;;;;;5046177;28;20529;-73
2023/07/02 04:27:58;;;;;;;0.30;0.30;;;12.80;1.00;;;;;;5045863;28;20049;-72
2023/07/02 04:30:24;;;;;;;1.52;0.82;;;12.80;1.00;;;;;;5046174;28;20056;-73
2023/07/02 04:32:53;;;;;;;0.47;0.47;;;13.00;99.90;;;;;;5045317;28;20109;-73
2023/07/02 04:35:19;;;;;;;5.55;0.35;;;13.20;99.90;;;;;;5045976;28;20119;-73
2023/07/02 04:37:44;;;;;;;3.03;0.80;;;13.40;99.90;;;;;;5045568;28;20182;-73
2023/07/02 04:40:10;;;;;;;0.70;0.70;;;13.70;1.00;;;;;;5045859;28;20055;-73
2023/07/02 04:42:41;;;;;;;6.85;2.33;;;13.60;99.90;;;;;;5045944;28;20048;-74
2023/07/02 04:45:08;;;;;;;0.38;0.38;;;13.50;99.90;;;;;;5044773;28;20083;-72
2023/07/02 04:47:34;;;;;;;6.82;2.20;;;13.50;45.90;;;;;;5045858;28;20045;-73
2023/07/02 04:50:00;;;;;;;1.08;0.68;;;13.40;99.90;;;;;;5045638;28;20753;-73
2023/07/02 04:52:26;;;;;;;2.05;1.13;;;13.30;99.90;;;;;;5045532;28;20118;-73
2023/07/02 04:54:52;;;;;;;0.70;0.68;;;13.30;99.90;;;;;;5045738;28;20049;-73
2023/07/02 04:57:18;;;;;;;13.77;2.90;;;13.90;99.90;;;;;;5045523;28;20052;-72
2023/07/02 04:59:44;;;;;;;1.65;1.25;;;14.70;25.00;;;;;;5045528;28;20049;-75
2023/07/02 05:02:10;;;;;;;2.22;1.02;;;15.50;99.90;;;;;;5045649;28;20061;-73
2023/07/02 05:04:39;;;;;;;4.85;1.65;;;16.20;99.90;;;;;;5045707;28;20041;-73
2023/07/02 05:07:04;;;;;;;3.28;1.40;;;16.90;1.00;;;;;;5045216;28;20048;-73
2023/07/02 05:09:30;;;;;;;3.13;1.38;;;17.00;99.90;;;;;;5044767;28;20063;-73
2023/07/02 05:11:56;;;;;;;1.10;0.28;;;17.20;99.90;;;;;;5044782;28;20187;-73
2023/07/02 05:14:22;;;;;;;4.00;1.13;;;17.60;1.00;;;;;;5045070;28;20049;-74
2023/07/02 05:16:48;;;;;;;3.33;1.88;;;18.20;1.00;;;;;;5044844;28;20048;-73
2023/07/02 05:19:14;;;;;;;0.35;0.35;;;18.70;99.90;;;;;;5044747;28;20456;-73
2023/07/02 05:21:40;;;;;;;1.10;0.52;;;19.00;99.90;;;;;;5044707;28;20056;-73
2023/07/02 05:24:06;;;;;;;0.73;0.30;;;19.40;99.90;;;;;;5044961;28;20609;-73
2023/07/02 05:26:33;;;;;;;3.10;0.95;;;19.60;99.90;;;;;;5044975;28;20099;-73
2023/07/02 05:28:58;;;;;;;0.93;0.90;;;19.90;99.90;;;;;;5044963;28;20056;-73
2023/07/02 05:31:24;;;;;;;0.55;0.45;;;19.80;99.90;;;;;;5043958;28;20044;-73
2023/07/02 05:33:50;;;;;;;2.13;1.08;;;19.60;99.90;;;;;;5043513;28;20052;-73
2023/07/02 05:36:16;;;;;;;0.73;0.73;;;19.60;68.70;;;;;;5042689;28;20045;-73
2023/07/02 05:38:41;;;;;;;1.33;0.85;;;20.00;72.80;;;;;;5043216;28;20099;-73
2023/07/02 05:41:07;;;;;;;1.95;1.35;;;20.10;50.00;;;;;;5043033;28;20498;-73
2023/07/02 05:43:32;;;;;;;21.73;1.45;;;20.50;38.30;;;;;;5042902;28;20032;-73
2023/07/02 05:46:00;;;;;;;1.52;1.10;;;20.60;2.10;;;;;;5043138;28;20517;-73
2023/07/02 05:48:27;;;;;;;2.53;0.75;;;20.70;1.00;;;;;;5043051;28;20132;-73
2023/07/02 05:50:53;;;;;;;1.65;0.77;;;20.60;1.00;;;;;;5042323;28;20051;-72
2023/07/02 05:53:18;;;;;;;1.30;1.02;;;20.90;1.00;;;;;;5043089;28;20450;-73
2023/07/02 05:55:44;;;;;;;2.58;0.45;;;21.30;1.00;;;;;;5043037;28;20057;-73
2023/07/02 05:58:10;;;;;;;3.83;1.27;;;21.80;1.00;;;;;;5042978;28;20063;-73
2023/07/02 06:00:36;;;;;;;1.73;0.77;;;21.50;1.00;;;;;;5042813;28;20043;-73
2023/07/02 06:03:02;;;;;;;2.30;0.95;;;21.40;1.00;;;;;;5042930;28;20407;-73
2023/07/02 06:05:28;;;;;;;0.98;0.47;;;20.60;1.00;;;;;;5042907;28;21079;-73
2023/07/02 06:07:53;;;;;;;0.63;0.50;;;19.90;1.00;;;;;;5042888;28;20538;-73
2023/07/02 06:10:19;;;;;;;2.72;1.23;;;19.30;99.90;;;;;;5042533;28;20125;-73
2023/07/02 06:12:45;;;;;;;4.28;1.45;;;18.70;99.90;;;;;;5043040;28;20057;-72
2023/07/02 06:15:11;;;;;;;0.20;0.20;;;18.10;99.90;;;;;;5042686;28;20525;-73
2023/07/02 06:17:37;;;;;;;2.55;0.38;;;17.80;99.90;;;;;;5042727;28;20045;-73
2023/07/02 06:20:07;;;;;;;0.52;0.52;;;17.60;1.00;;;;;;5042574;28;20201;-73
2023/07/02 06:22:33;;;;;;;0.80;0.75;;;17.60;1.00;;;;;;5042821;28;20056;-73
2023/07/02 06:24:58;;;;;;;1.38;0.90;;;18.30;1.00;;;;;;5042944;28;20053;-73
2023/07/02 06:27:24;;;;;;;0.88;0.80;;;19.30;1.00;;;;;;5042229;28;20157;-73
2023/07/02 06:29:51;;;;;;;1.02;0.82;;;20.10;1.00;;;;;;5042518;28;20153;-73
2023/07/02 06:32:17;;;;;;;2.50;1.35;;;20.80;1.00;;;;;;5041675;28;20131;-73
2023/07/02 06:34:42;;;;;;;2.58;1.88;;;21.40;1.00;;;;;;5042240;28;20128;-73
2023/07/02 06:37:08;;;;;;;0.60;0.45;;;21.70;1.00;;;;;;5042236;28;20048;-73
2023/07/02 06:39:34;;;;;;;0.20;0.20;;;21.80;1.00;;;;;;5042203;28;20076;-73
2023/07/02 06:41:59;;;;;;;0.30;0.30;;;22.20;1.00;;;;;;5041615;28;20040;-73
2023/07/02 06:44:25;;;;;;;10.55;0.85;;;22.50;1.00;;;;;;5042203;28;20044;-73
2023/07/02 06:46:51;;;;;;;3.22;1.33;;;22.30;99.90;;;;;;5042604;28;20368;-73
2023/07/02 06:49:16;;;;;;;0.25;0.20;;;22.00;99.90;;;;;;5042018;28;20144;-73
2023/07/02 06:51:42;;;;;;;7.13;0.65;;;21.60;99.90;;;;;;5042227;28;20044;-73
2023/07/02 06:54:08;;;;;;;4.47;0.57;;;21.10;99.90;;;;;;5042268;28;20056;-73
2023/07/02 06:56:34;;;;;;;3.63;1.33;;;20.80;99.90;;;;;;5042086;28;20510;-73
2023/07/02 06:59:00;;;;;;;0.30;0.30;;;21.70;99.90;;;;;;5042237;28;20048;-73
2023/07/02 07:01:26;;;;;;;0.17;0.17;;;22.20;99.90;;;;;;5041704;28;20041;-73
2023/07/02 07:03:52;;;;;;;0.30;0.30;;;22.50;99.90;;;;;;5041794;28;20487;-73
2023/07/02 07:06:18;;;;;;;1.02;0.80;;;22.20;99.90;;;;;;5042003;28;20494;-73
2023/07/02 07:08:43;;;;;;;6.47;1.40;;;22.10;99.90;;;;;;5042039;28;20049;-73
2023/07/02 07:11:09;;;;;;;1.15;0.80;;;22.10;99.90;;;;;;5040845;28;20056;-73
2023/07/02 07:13:35;;;;;;;0.70;0.47;;;22.50;99.90;;;;;;5042161;28;20408;-73
2023/07/02 07:16:00;;;;;;;2.10;1.42;;;22.60;99.90;;;;;;5038886;28;20045;-73
2023/07/02 07:18:26;;;;;;;0.20;0.20;;;23.00;99.90;;;;;;5026987;28;20567;-73
2023/07/02 07:20:52;;;;;;;0.22;0.22;;;22.50;99.90;;;;;;5028271;28;20128;-73
2023/07/02 07:23:18;;;;;;;0.20;0.20;;;21.80;99.90;;;;;;5025683;28;20107;-73
2023/07/02 07:25:44;;;;;;;0.30;0.30;;;22.20;99.90;;;;;;5035735;28;20053;-73
2023/07/02 07:28:15;;;;;;;1.65;0.52;;;22.50;99.90;;;;;;5038942;28;20049;-73
2023/07/02 07:30:43;;;;;;;8.50;0.57;;;22.50;99.90;;;;;;5038614;28;20052;-73
2023/07/02 07:33:10;;;;;;;1.35;0.85;;;22.90;99.90;;;;;;5038852;28;20178;-73
2023/07/02 07:35:36;;;;;;;0.32;0.32;;;23.50;99.90;;;;;;5038874;28;20499;-74
2023/07/02 07:38:02;;;;;;;1.55;0.43;;;23.00;99.90;;;;;;5039466;28;20052;-73
2023/07/02 07:40:27;;;;;;;1.15;0.80;;;23.70;99.90;;;;;;5039009;28;20037;-73
2023/07/02 07:42:53;;;;;;;0.10;0.10;;;23.90;99.90;;;;;;5039222;28;20775;-73
2023/07/02 07:45:18;;;;;;;0.93;0.85;;;23.80;99.90;;;;;;5030360;28;20077;-73
2023/07/02 07:47:44;;;;;;;0.00;0.00;;;24.40;99.90;;;;;;5032501;28;20045;-73
2023/07/02 07:50:10;;;;;;;4.95;1.13;;;24.20;99.90;;;;;;5031977;28;20063;-74
2023/07/02 07:52:42;;;;;;;0.65;0.47;;;24.20;99.90;;;;;;5033011;28;20127;-74
2023/07/02 07:55:09;;;;;;;0.00;0.00;;;23.80;99.90;;;;;;5043629;28;20052;-74
2023/07/02 07:57:35;;;;;;;0.17;0.17;;;23.60;99.90;;;;;;5042638;28;20083;-74
2023/07/02 08:00:04;;;;;;;0.35;0.35;;;24.10;99.90;;;;;;5042172;28;20554;-74
2023/07/02 08:02:29;;;;;;;2.10;0.57;;;24.00;99.90;;;;;;5042892;28;20072;-73
2023/07/02 08:04:55;;;;;;;1.23;0.57;;;23.50;99.90;;;;;;5042944;28;20072;-74
2023/07/02 08:07:20;;;;;;;0.22;0.15;;;22.50;99.90;;;;;;5043142;28;20444;-74
2023/07/02 08:09:46;;;;;;;0.47;0.40;;;22.00;95.50;;;;;;5042395;28;20574;-73
2023/07/02 08:12:12;;;;;;;0.10;0.10;;;22.50;99.90;;;;;;5041947;28;20104;-74
2023/07/02 08:14:37;;;;;;;25.85;0.73;;;23.40;99.90;;;;;;5042597;28;20095;-73
2023/07/02 08:17:03;;;;;;;0.00;0.00;;;23.60;99.90;;;;;;5042486;28;20164;-74
2023/07/02 08:19:29;;;;;;;0.20;0.20;;;23.90;99.90;;;;;;5042053;28;20052;-74
2023/07/02 08:21:55;;;;;;;1.80;1.25;;;24.00;99.90;;;;;;5041925;28;20072;-74
2023/07/02 08:24:20;;;;;;;1.15;1.05;;;24.40;99.90;;;;;;5042384;28;20601;-73
2023/07/02 08:26:47;;;;;;;0.20;0.08;;;24.30;99.90;;;;;;5042353;28;20053;-74
2023/07/02 08:29:13;;;;;;;0.13;0.13;;;24.20;99.90;;;;;;5042852;28;20059;-74
2023/07/02 08:31:40;;;;;;;4.90;1.42;;;24.60;99.90;;;;;;5042300;28;20571;-74
2023/07/02 08:34:06;;;;;;;0.17;0.15;;;25.50;99.90;;;;;;5042412;28;20052;-74
2023/07/02 08:36:31;;;;;;;1.85;0.35;;;26.40;99.90;;;;;;5042289;28;20458;-73
2023/07/02 08:38:57;;;;;;;1.10;0.85;;;26.50;99.90;;;;;;5043075;28;20048;-74
2023/07/02 08:41:23;;;;;;;0.08;0.05;;;25.10;43.30;;;;;;5045768;28;20785;-74
2023/07/02 08:43:51;;;;;;;0.35;0.35;;;23.50;7.50;;;;;;5044941;28;20120;-74
2023/07/02 08:46:17;;;;;;;0.20;0.20;;;22.30;1.00;;;;;;5045283;28;20044;-73
2023/07/02 08:48:43;;;;;;;1.05;0.65;;;21.20;1.00;;;;;;5042264;28;20055;-73
2023/07/02 08:51:08;;;;;;;1.45;0.30;;;20.30;1.00;;;;;;5041608;28;20760;-73
2023/07/02 08:53:34;;;;;;;0.17;0.13;;;19.80;1.00;;;;;;5042393;28;20130;-74
2023/07/02 08:56:02;;;;;;;0.10;0.10;;;20.00;1.00;;;;;;5045087;28;20072;-73
2023/07/02 08:58:28;;;;;;;1.48;0.73;;;21.60;32.20;;;;;;5041860;28;20049;-74
2023/07/02 09:01:11;;;;;;;0.17;0.08;;;22.40;53.50;;;;;;5040931;28;20041;-73
2023/07/02 09:03:38;;;;;;;0.22;0.22;;;21.70;29.10;;;;;;5041751;28;20381;-74
2023/07/02 09:06:11;;;;;;;0.25;0.25;;;21.30;26.80;;;;;;5041579;28;20727;-73
2023/07/02 09:08:37;;;;;;;1.17;0.60;;;20.60;1.00;;;;;;5041364;28;20049;-73
2023/07/02 09:11:15;;;;;;;0.68;0.68;;;20.10;1.00;;;;;;5040730;28;20064;-74
2023/07/02 09:13:48;;;;;;;0.17;0.15;;;19.80;1.10;;;;;;5041236;28;20051;-73
2023/07/02 09:16:25;;;;;;;0.43;0.35;;;20.20;27.30;;;;;;5041619;28;20081;-72
2023/07/02 09:19:08;;;;;;;11.85;1.05;;;20.80;47.30;;;;;;5040871;28;20420;-72
2023/07/02 09:21:45;;;;;;;1.95;0.95;;;20.70;44.60;;;;;;5041972;28;20041;-73
2023/07/02 09:24:22;;;;;;;1.65;0.88;;;20.30;40.40;;;;;;5041488;28;20040;-73
2023/07/02 09:26:50;;;;;;;0.00;0.00;;;19.90;47.20;;;;;;5041854;28;20053;-73
2023/07/02 09:29:30;;;;;;;13.05;3.20;;;19.60;58.90;;;;;;5040939;28;20060;-73
2023/07/02 09:31:58;;;;;;;0.35;0.32;;;19.60;74.00;;;;;;5041112;28;20363;-73
2023/07/02 09:34:31;;;;;;;0.57;0.28;;;19.50;73.60;;;;;;5041330;28;20500;-73
2023/07/02 09:36:58;;;;;;;0.22;0.22;;;19.60;65.00;;;;;;5041064;28;20048;-73
2023/07/02 09:39:30;;;;;;;2.53;1.23;;;19.80;66.50;;;;;;5041186;28;20481;-73
2023/07/02 09:41:58;;;;;;;0.43;0.20;;;20.30;87.50;;;;;;5040723;28;20060;-73
2023/07/02 09:44:29;;;;;;;19.08;0.73;;;20.50;92.90;;;;;;5040469;28;20554;-73
2023/07/02 09:47:06;;;;;;;0.88;0.65;;;20.70;96.10;;;;;;5040897;28;20491;-72
2023/07/02 09:49:33;;;;;;;0.00;0.00;;;20.60;95.40;;;;;;5040873;28;20457;-73
2023/07/02 09:52:01;;;;;;;0.35;0.35;;;20.40;90.00;;;;;;5040982;28;20695;-72
2023/07/02 09:54:28;;;;;;;0.20;0.20;;;20.10;84.50;;;;;;5040571;28;20578;-73
2023/07/02 09:56:55;;;;;;;0.60;0.60;;;20.00;93.00;;;;;;5040334;28;20080;-73
2023/07/02 09:59:20;;;;;;;0.70;0.70;;;20.10;88.50;;;;;;5040708;28;20447;-73
2023/07/02 10:01:47;;;;;;;5.20;0.38;;;20.00;85.40;;;;;;5041290;28;20132;-73
2023/07/02 10:04:14;;;;;;;3.35;0.63;;;20.70;92.10;;;;;;5044475;28;20099;-72
2023/07/02 10:06:56;;;;;;;0.40;0.40;;;21.80;99.90;;;;;;5041764;28;20060;-73
2023/07/02 10:09:37;;;;;;;0.55;0.52;;;22.90;99.90;;;;;;5043783;28;20063;-73
2023/07/02 10:12:17;;;;;;;1.45;0.85;;;22.60;99.90;;;;;;5034436;28;20064;-73
2023/07/02 10:14:43;;;;;;;0.75;0.57;;;22.10;83.50;;;;;;5040010;28;20049;-73
2023/07/02 10:17:09;;;;;;;0.68;0.55;;;21.50;69.20;;;;;;5039701;28;20587;-73
2023/07/02 10:19:35;;;;;;;0.55;0.55;;;21.40;59.80;;;;;;5038810;28;20141;-73
2023/07/02 10:22:02;;;;;;;0.98;0.43;;;21.40;68.10;;;;;;5040740;28;20051;-73
2023/07/02 10:24:28;;;;;;;0.20;0.20;;;21.80;95.00;;;;;;5040536;28;20102;-73
2023/07/02 10:26:59;;;;;;;0.10;0.10;;;22.10;95.60;;;;;;5039728;28;20045;-73
2023/07/02 10:29:26;;;;;;;0.47;0.43;;;22.20;95.00;;;;;;5039790;28;20141;-73
2023/07/02 10:31:53;;;;;;;0.47;0.40;;;21.90;61.70;;;;;;5039752;28;20052;-73
2023/07/02 10:34:35;;;;;;;1.00;0.38;;;21.60;63.60;;;;;;5039735;28;20091;-73
2023/07/02 10:37:02;;;;;;;0.52;0.35;;;21.20;62.20;;;;;;5040667;28;20078;-73
2023/07/02 10:39:31;;;;;;;0.63;0.28;;;20.90;27.60;;;;;;5039184;28;20045;-73
2023/07/02 10:42:07;;;;;;;1.73;0.60;;;20.60;25.20;;;;;;5038531;28;20091;-73
2023/07/02 10:44:33;;;;;;;0.38;0.30;;;21.10;52.60;;;;;;5039639;28;20041;-73
2023/07/02 10:47:00;;;;;;;0.17;0.10;;;21.50;68.40;;;;;;5038098;28;20048;-73
2023/07/02 10:49:33;;;;;;;0.00;0.00;;;21.80;75.70;;;;;;5037664;28;20103;-73
2023/07/02 10:52:03;;;;;;;2.20;1.25;;;21.70;61.20;;;;;;5037817;28;20080;-73
2023/07/02 10:54:58;;;;;;;0.03;0.03;;;21.60;35.00;;;;;;5037942;28;20179;-73
2023/07/02 10:57:24;;;;;;;0.88;0.30;;;22.00;42.90;;;;;;5032760;28;20064;-73
2023/07/02 10:59:50;;;;;;;1.05;0.98;;;22.50;66.50;;;;;;5037657;28;20052;-73
2023/07/02 11:02:16;;;;;;;1.98;1.20;;;22.70;42.50;;;;;;5039719;28;20071;-73
2023/07/02 11:04:41;;;;;;;2.53;1.25;;;22.20;7.60;;;;;;5040296;28;20045;-73
2023/07/02 11:07:09;;;;;;;0.40;0.40;;;21.60;1.00;;;;;;5040276;28;20151;-73
2023/07/02 11:09:35;;;;;;;0.25;0.17;;;21.00;1.00;;;;;;5039279;28;20131;-73
2023/07/02 11:12:01;;;;;;;0.55;0.38;;;21.00;1.00;;;;;;5039158;28;20136;-73
2023/07/02 11:14:31;;;;;;;0.52;0.25;;;21.40;33.20;;;;;;5039806;28;20048;-73
2023/07/02 11:16:58;;;;;;;0.75;0.73;;;21.80;39.30;;;;;;5039841;28;20044;-73
2023/07/02 11:19:24;;;;;;;0.60;0.47;;;22.20;63.80;;;;;;5043880;28;20403;-73
2023/07/02 11:21:58;;;;;;;3.20;0.68;;;22.20;63.80;;;;;;5046052;28;20056;-73
2023/07/02 11:24:34;;;;;;;0.75;0.35;;;22.00;35.00;;;;;;5045873;28;20128;-72
2023/07/02 11:27:03;;;;;;;1.73;0.55;;;21.70;37.10;;;;;;5046418;28;20049;-73
2023/07/02 11:29:29;;;;;;;0.30;0.30;;;21.50;31.50;;;;;;5046050;28;20048;-73
2023/07/02 11:32:05;;;;;;;0.08;0.08;;;21.60;21.10;;;;;;5048361;28;20068;-73
2023/07/02 11:34:30;;;;;;;0.38;0.38;;;21.80;29.40;;;;;;5049003;28;20089;-73
2023/07/02 11:36:56;;;;;;;1.38;1.13;;;21.70;34.30;;;;;;5047615;28;20073;-72
2023/07/02 11:39:21;;;;;;;0.30;0.30;;;21.90;6.70;;;;;;5048812;28;20044;-72
2023/07/02 11:41:48;;;;;;;0.00;0.00;;;22.20;11.30;;;;;;5047451;28;20576;-72
2023/07/02 11:44:15;;;;;;;0.43;0.32;;;22.20;4.50;;;;;;5048047;28;20114;-72
2023/07/02 11:46:41;;;;;;;0.28;0.13;;;22.40;1.30;;;;;;5048222;28;20049;-72
2023/07/02 11:49:09;;;;;;;0.28;0.10;;;22.90;1.00;;;;;;5047980;28;20051;-73
2023/07/02 11:51:36;;;;;;;0.85;0.65;;;22.60;1.00;;;;;;5047651;28;20052;-72
2023/07/02 11:54:04;;;;;;;1.17;0.40;;;23.40;4.70;;;;;;5047935;28;20052;-72
2023/07/02 11:56:30;;;;;;;0.38;0.30;;;24.30;31.10;;;;;;5048450;28;20052;-72
2023/07/02 11:58:55;;;;;;;0.77;0.57;;;25.20;84.60;;;;;;5048219;28;20127;-73
2023/07/02 12:01:21;;;;;;;0.10;0.05;;;25.30;93.00;;;;;;5047954;28;20119;-73
2023/07/02 12:03:47;;;;;;;1.15;1.02;;;24.20;62.00;;;;;;5047987;28;20045;-73
2023/07/02 12:06:12;;;;;;;1.95;0.75;;;23.00;18.60;;;;;;5048383;28;20048;-72
2023/07/02 12:08:38;;;;;;;2.05;0.68;;;22.50;10.40;;;;;;5048255;28;20126;-73
2023/07/02 12:11:03;;;;;;;3.40;1.15;;;23.20;31.70;;;;;;5047907;28;20488;-73
2023/07/02 12:13:29;;;;;;;0.77;0.77;;;23.20;21.50;;;;;;5048441;28;20053;-72
2023/07/02 12:15:55;;;;;;;0.20;0.20;;;22.50;1.00;;;;;;5048130;28;20092;-72
2023/07/02 12:18:20;;;;;;;0.80;0.60;;;22.10;1.00;;;;;;5048077;28;20045;-72
2023/07/02 12:20:46;;;;;;;0.47;0.40;;;21.60;1.00;;;;;;5047971;28;20040;-72
2023/07/02 12:23:11;;;;;;;0.00;0.00;;;21.20;1.00;;;;;;5047955;28;20913;-72
2023/07/02 12:25:38;;;;;;;12.02;1.45;;;21.00;1.00;;;;;;5048228;28;20132;-72
2023/07/02 12:28:04;;;;;;;0.15;0.13;;;20.90;1.00;;;;;;5047603;28;20491;-72
2023/07/02 12:30:30;;;;;;;0.28;0.20;;;20.50;1.00;;;;;;5045157;28;20544;-72
2023/07/02 12:32:56;;;;;;;0.75;0.40;;;20.60;1.00;;;;;;5044678;28;20053;-72
2023/07/02 12:35:22;;;;;;;0.38;0.22;;;21.20;1.00;;;;;;5044860;28;20083;-72
2023/07/02 12:37:49;;;;;;;1.20;0.05;;;22.40;9.90;;;;;;5044980;28;20448;-72
2023/07/02 12:40:15;;;;;;;1.45;0.45;;;22.40;1.50;;;;;;5044469;28;20446;-72
2023/07/02 12:42:42;;;;;;;0.10;0.10;;;22.00;1.00;;;;;;5044711;28;20095;-72
2023/07/02 12:45:10;;;;;;;0.40;0.40;;;22.00;1.00;;;;;;5044752;28;20047;-72
2023/07/02 12:47:35;;;;;;;2.53;0.90;;;23.30;1.00;;;;;;5044469;28;20095;-72
2023/07/02 12:50:01;;;;;;;0.00;0.00;;;23.90;1.00;;;;;;5045114;28;20073;-73